Time;durP1;ratioP1;P1;durP2;ratioP2;P2;SDS_P1;SDS_P2;PMS_P1;PMS_P2;Temp;Humidity;BMP_temperature;BMP_pressure;BME280_temperature;BME280_humidity;BME280_pressure;Samples;Min_cycle;Max_cycle;Signal;HPM_P1;HPM_P2
2023/10/16 00:02:12;;;;;;;3.20;0.77;;;7.30;99.90;;;;;;4995715;28;20209;-74
2023/10/16 00:04:43;;;;;;;1.77;0.67;;;7.30;99.90;;;;;;5010579;28;20248;-73
2023/10/16 00:07:13;;;;;;;4.13;0.90;;;7.30;99.90;;;;;;5010764;28;20752;-74
2023/10/16 00:09:43;;;;;;;5.10;0.87;;;7.30;99.90;;;;;;5006958;28;20220;-74
2023/10/16 00:12:09;;;;;;;2.33;0.70;;;7.20;99.90;;;;;;5010263;28;20185;-74
2023/10/16 00:14:36;;;;;;;0.83;0.57;;;7.20;99.90;;;;;;5000303;28;20684;-74
2023/10/16 00:17:08;;;;;;;4.07;0.60;;;7.20;99.90;;;;;;5003114;28;20560;-74
2023/10/16 00:19:37;;;;;;;1.70;0.60;;;7.20;99.90;;;;;;5002372;28;20656;-74
2023/10/16 00:22:16;;;;;;;4.93;0.70;;;7.20;99.90;;;;;;5000501;28;20220;-74
2023/10/16 00:24:51;;;;;;;2.60;0.60;;;7.10;99.90;;;;;;5010194;28;20719;-73
2023/10/16 00:27:17;;;;;;;4.50;1.10;;;7.10;99.90;;;;;;5004882;28;20181;-74
2023/10/16 00:29:43;;;;;;;2.37;1.07;;;7.10;99.90;;;;;;5007555;28;20193;-76
2023/10/16 00:32:11;;;;;;;3.63;0.70;;;7.00;99.90;;;;;;5007260;28;20213;-74
2023/10/16 00:34:37;;;;;;;3.17;0.90;;;7.10;99.90;;;;;;5007202;28;20217;-74
2023/10/16 00:37:04;;;;;;;6.33;1.20;;;7.10;99.90;;;;;;5010712;28;20213;-74
2023/10/16 00:39:30;;;;;;;5.03;0.70;;;7.00;99.90;;;;;;5000713;28;20220;-74
2023/10/16 00:42:00;;;;;;;1.23;0.50;;;7.00;99.90;;;;;;5011809;28;20173;-73
2023/10/16 00:44:33;;;;;;;3.83;1.23;;;7.00;99.90;;;;;;5008318;28;20295;-74
2023/10/16 00:47:05;;;;;;;3.23;0.77;;;7.00;99.90;;;;;;5007730;28;20221;-74
2023/10/16 00:49:34;;;;;;;2.33;0.60;;;7.10;99.90;;;;;;5005532;28;20213;-74
2023/10/16 00:52:03;;;;;;;4.43;0.73;;;7.00;99.90;;;;;;5004369;28;20291;-74
2023/10/16 00:54:33;;;;;;;1.63;0.60;;;7.00;99.90;;;;;;5013189;28;20221;-73
2023/10/16 00:56:59;;;;;;;5.43;0.87;;;7.00;99.90;;;;;;5002325;28;20181;-74
2023/10/16 00:59:26;;;;;;;4.03;0.80;;;7.00;99.90;;;;;;5002454;28;20217;-74
2023/10/16 01:02:04;;;;;;;3.93;0.70;;;7.00;99.90;;;;;;5003241;28;20213;-73
2023/10/16 01:04:31;;;;;;;3.97;1.13;;;6.90;99.90;;;;;;4999748;28;20206;-71
2023/10/16 01:06:57;;;;;;;2.80;0.90;;;7.00;99.90;;;;;;5008463;28;20307;-73
2023/10/16 01:09:23;;;;;;;4.53;1.00;;;6.90;99.90;;;;;;5006001;28;20283;-74
2023/10/16 01:11:52;;;;;;;2.80;1.13;;;6.90;99.90;;;;;;5009712;28;20192;-72
2023/10/16 01:14:19;;;;;;;3.27;0.57;;;7.00;99.90;;;;;;5007650;28;20221;-74
2023/10/16 01:16:46;;;;;;;3.33;0.83;;;6.90;99.90;;;;;;5006282;28;20332;-74
2023/10/16 01:19:14;;;;;;;1.50;0.80;;;6.90;99.90;;;;;;5007811;28;20271;-73
2023/10/16 01:21:39;;;;;;;6.90;0.83;;;6.90;99.90;;;;;;5011479;28;20231;-74
2023/10/16 01:24:16;;;;;;;2.43;0.80;;;6.90;99.90;;;;;;5005742;28;20201;-74
2023/10/16 01:26:42;;;;;;;3.80;0.73;;;6.90;99.90;;;;;;5002089;28;20564;-74
2023/10/16 01:29:13;;;;;;;2.50;0.80;;;6.90;99.90;;;;;;5001662;28;20209;-74
2023/10/16 01:31:40;;;;;;;1.30;0.80;;;6.90;99.90;;;;;;5002389;28;20217;-73
2023/10/16 01:34:10;;;;;;;5.77;0.70;;;7.00;99.90;;;;;;5006738;28;20907;-74
2023/10/16 01:36:46;;;;;;;3.87;0.77;;;7.00;99.90;;;;;;5004056;28;20213;-73
2023/10/16 01:39:47;;;;;;;1.30;0.70;;;6.90;99.90;;;;;;5004048;28;20180;-70
2023/10/16 01:42:01;;;;;;;1.67;0.70;;;6.80;99.90;;;;;;5003195;28;20189;-73
2023/10/16 01:44:30;;;;;;;0.70;0.40;;;6.80;99.90;;;;;;5005080;28;20232;-74
2023/10/16 01:46:56;;;;;;;4.30;1.13;;;6.80;99.90;;;;;;5007151;28;20221;-74
2023/10/16 01:49:25;;;;;;;2.87;0.77;;;6.80;99.90;;;;;;5006828;28;20220;-73
2023/10/16 01:51:51;;;;;;;3.70;0.50;;;6.80;99.90;;;;;;5005415;28;20244;-73
2023/10/16 01:54:22;;;;;;;4.17;0.70;;;6.80;99.90;;;;;;5003331;28;20227;-73
2023/10/16 01:56:51;;;;;;;1.70;0.70;;;6.80;99.90;;;;;;5008317;28;20290;-74
2023/10/16 01:59:21;;;;;;;2.70;0.70;;;6.70;99.90;;;;;;5007719;28;20216;-74
2023/10/16 02:01:47;;;;;;;4.43;0.80;;;6.80;99.90;;;;;;5005570;28;20295;-73
2023/10/16 02:04:12;;;;;;;1.83;0.60;;;6.80;99.90;;;;;;5004042;28;20695;-73
2023/10/16 02:06:39;;;;;;;3.83;0.63;;;6.70;99.90;;;;;;4998235;28;20236;-74
2023/10/16 02:09:12;;;;;;;1.27;0.63;;;6.70;99.90;;;;;;5003632;28;20699;-74
2023/10/16 02:11:40;;;;;;;4.00;0.87;;;6.70;99.90;;;;;;5001365;28;20691;-74
2023/10/16 02:14:06;;;;;;;4.90;0.87;;;6.60;99.90;;;;;;5003900;28;20220;-73
2023/10/16 02:16:32;;;;;;;5.80;0.60;;;6.70;99.90;;;;;;5003960;28;20243;-73
2023/10/16 02:18:57;;;;;;;1.77;0.60;;;6.60;99.90;;;;;;5003959;28;20217;-73
2023/10/16 02:21:24;;;;;;;1.30;0.67;;;6.70;99.90;;;;;;5005473;28;20224;-73
2023/10/16 02:23:49;;;;;;;5.13;0.90;;;6.70;99.90;;;;;;5008399;28;20651;-74
2023/10/16 02:26:19;;;;;;;1.57;0.70;;;6.70;99.90;;;;;;5005608;28;20243;-73
2023/10/16 02:28:53;;;;;;;6.77;1.10;;;6.60;99.90;;;;;;5008146;28;20251;-73
2023/10/16 02:31:19;;;;;;;0.97;0.80;;;6.70;99.90;;;;;;4998475;28;20238;-73
2023/10/16 02:34:09;;;;;;;9.30;1.20;;;6.60;99.90;;;;;;5006694;28;20240;-75
2023/10/16 02:36:35;;;;;;;3.30;0.73;;;6.70;99.90;;;;;;5003263;28;20251;-73
2023/10/16 02:39:07;;;;;;;2.70;0.90;;;6.60;99.90;;;;;;5004154;28;20648;-74
2023/10/16 02:41:33;;;;;;;1.90;0.73;;;6.60;99.90;;;;;;5004595;28;20243;-74
2023/10/16 02:43:59;;;;;;;4.50;0.80;;;6.50;99.90;;;;;;5008234;28;20604;-73
2023/10/16 02:46:25;;;;;;;6.20;1.17;;;6.50;99.90;;;;;;4999218;28;20213;-73
2023/10/16 02:48:53;;;;;;;5.27;0.90;;;6.50;99.90;;;;;;5005440;28;20681;-72
2023/10/16 02:51:20;;;;;;;2.30;0.50;;;6.60;99.90;;;;;;5003180;28;20181;-71
2023/10/16 02:53:49;;;;;;;2.33;0.77;;;6.60;99.90;;;;;;5004432;28;20178;-75
2023/10/16 02:56:14;;;;;;;3.03;0.73;;;6.60;99.90;;;;;;5003926;28;20227;-71
2023/10/16 02:58:44;;;;;;;0.80;0.60;;;6.60;99.90;;;;;;5005691;28;20209;-74
2023/10/16 03:01:19;;;;;;;3.07;1.00;;;6.60;99.90;;;;;;5006075;28;20236;-74
2023/10/16 03:03:46;;;;;;;2.83;0.60;;;6.50;99.90;;;;;;5004977;28;20224;-74
2023/10/16 03:06:12;;;;;;;1.30;0.80;;;6.60;99.90;;;;;;5008657;28;20243;-74
2023/10/16 03:08:38;;;;;;;3.87;0.70;;;6.50;99.90;;;;;;4997875;28;20197;-74
2023/10/16 03:11:07;;;;;;;2.33;0.73;;;6.40;99.90;;;;;;5008981;28;20205;-74
2023/10/16 03:16:29;;;;;;;2.63;1.00;;;6.40;99.90;;;;;;4992773;28;20209;-73
2023/10/16 03:19:09;;;;;;;4.13;1.60;;;6.40;99.90;;;;;;5009688;28;20209;-71
2023/10/16 03:21:35;;;;;;;4.13;0.80;;;6.50;99.90;;;;;;5009861;28;20275;-74
2023/10/16 03:24:00;;;;;;;3.33;1.03;;;6.50;99.90;;;;;;5009482;28;20209;-73
2023/10/16 03:26:30;;;;;;;4.00;1.13;;;6.50;99.90;;;;;;5006045;28;20212;-73
2023/10/16 03:28:58;;;;;;;1.30;1.07;;;6.50;99.90;;;;;;5007842;28;20205;-72
2023/10/16 03:31:24;;;;;;;2.93;1.17;;;6.50;99.90;;;;;;5009145;28;20209;-74
2023/10/16 03:33:51;;;;;;;4.73;0.97;;;6.40;99.90;;;;;;5009178;28;20236;-73
2023/10/16 03:36:17;;;;;;;4.47;1.00;;;6.40;99.90;;;;;;5008189;28;20186;-73
2023/10/16 03:38:43;;;;;;;4.67;0.90;;;6.40;99.90;;;;;;5000735;28;20643;-73
2023/10/16 03:41:31;;;;;;;3.17;0.80;;;6.40;99.90;;;;;;5009769;28;20240;-73
2023/10/16 03:43:58;;;;;;;1.13;0.60;;;6.40;99.90;;;;;;5007542;28;20623;-73
2023/10/16 03:46:27;;;;;;;3.03;0.50;;;6.40;99.90;;;;;;5012277;28;20636;-73
2023/10/16 03:48:54;;;;;;;4.10;0.90;;;6.40;99.90;;;;;;5009639;28;20236;-73
2023/10/16 03:51:21;;;;;;;9.10;1.30;;;6.40;99.90;;;;;;5008938;28;20184;-74
2023/10/16 03:53:47;;;;;;;4.30;0.70;;;6.30;99.90;;;;;;5011514;28;20264;-74
2023/10/16 03:56:13;;;;;;;3.20;1.08;;;6.40;99.90;;;;;;5007016;28;20454;-74
2023/10/16 03:58:43;;;;;;;1.87;0.57;;;6.40;99.90;;;;;;5010968;28;20211;-74
2023/10/16 04:01:13;;;;;;;3.87;0.80;;;6.30;99.90;;;;;;5009918;28;20274;-74
2023/10/16 04:03:47;;;;;;;4.43;1.20;;;6.30;99.90;;;;;;5017275;28;20215;-74
2023/10/16 04:06:20;;;;;;;2.57;0.63;;;6.40;99.90;;;;;;5014007;28;20556;-73
2023/10/16 04:08:49;;;;;;;5.03;1.03;;;6.40;99.90;;;;;;5014913;28;20209;-74
2023/10/16 04:11:16;;;;;;;10.43;1.37;;;6.40;99.90;;;;;;5006905;28;20213;-73
2023/10/16 04:13:47;;;;;;;2.53;0.73;;;6.40;99.90;;;;;;5011291;28;20637;-74
2023/10/16 04:21:54;;;;;;;5.10;1.30;;;6.40;99.90;;;;;;5009755;28;20726;-73
2023/10/16 04:27:28;;;;;;;1.23;0.67;;;6.30;99.90;;;;;;5012850;28;20180;-73
2023/10/16 04:29:49;;;;;;;1.43;0.70;;;6.30;99.90;;;;;;5011939;28;20577;-74
2023/10/16 04:35:04;;;;;;;1.70;0.73;;;6.30;99.90;;;;;;5009683;28;20239;-74
2023/10/16 04:37:29;;;;;;;4.83;0.73;;;6.20;99.90;;;;;;5013079;28;20205;-73
2023/10/16 05:11:36;;;;;;;6.43;1.60;;;6.00;99.90;;;;;;5005938;28;20246;-74
2023/10/16 05:17:21;;;;;;;2.80;0.80;;;6.00;99.90;;;;;;5019056;28;20766;-74
2023/10/16 05:19:53;;;;;;;3.53;1.00;;;6.10;99.90;;;;;;5014753;28;20221;-74
2023/10/16 06:14:50;;;;;;;2.80;1.13;;;7.80;99.90;;;;;;5007976;28;20215;-74
2023/10/16 06:17:16;;;;;;;2.87;1.13;;;8.60;99.90;;;;;;5013655;28;20675;-74
2023/10/16 06:19:43;;;;;;;5.03;0.80;;;9.00;99.90;;;;;;5012836;28;20204;-74
2023/10/16 06:22:09;;;;;;;1.60;0.83;;;9.40;99.90;;;;;;5017156;28;20203;-73
2023/10/16 06:24:47;;;;;;;0.60;0.50;;;9.60;99.90;;;;;;5013269;28;20263;-71
2023/10/16 06:27:19;;;;;;;1.30;0.60;;;9.90;99.90;;;;;;5016717;28;20546;-74
2023/10/16 06:29:52;;;;;;;1.92;1.10;;;10.20;99.90;;;;;;5010920;28;20220;-74
2023/10/16 06:32:21;;;;;;;2.30;0.70;;;10.50;99.90;;;;;;5001474;28;20292;-74
2023/10/16 06:34:51;;;;;;;2.50;0.88;;;10.90;99.90;;;;;;5012823;28;20212;-74
2023/10/16 06:37:17;;;;;;;3.08;0.90;;;11.00;99.90;;;;;;5005367;28;20220;-74
2023/10/16 06:39:47;;;;;;;3.15;0.95;;;11.40;99.90;;;;;;5009735;28;20220;-74
2023/10/16 06:42:19;;;;;;;2.22;1.20;;;11.60;99.90;;;;;;5008846;28;20188;-74
2023/10/16 06:45:19;;;;;;;0.90;0.68;;;11.50;99.90;;;;;;5004545;28;20185;-74
2023/10/16 06:47:35;;;;;;;6.30;1.10;;;11.40;99.90;;;;;;5010972;28;20676;-74
2023/10/16 06:52:49;;;;;;;2.60;0.65;;;12.10;99.90;;;;;;5002497;28;20243;-74
2023/10/16 06:55:14;;;;;;;2.28;1.15;;;11.80;99.90;;;;;;5010457;28;20223;-75
2023/10/16 06:57:40;;;;;;;5.50;1.08;;;11.80;99.90;;;;;;5014122;28;20820;-75
2023/10/16 07:00:21;;;;;;;2.95;0.90;;;10.80;99.90;;;;;;5024222;28;20778;-74
2023/10/16 07:02:47;;;;;;;1.60;0.73;;;10.80;99.90;;;;;;5012993;28;20671;-74
2023/10/16 07:05:14;;;;;;;3.70;0.95;;;11.00;99.90;;;;;;5013042;28;20208;-74
2023/10/16 07:07:39;;;;;;;1.45;0.82;;;11.10;99.90;;;;;;5009997;28;20296;-75
2023/10/16 07:10:13;;;;;;;3.72;1.23;;;11.10;99.90;;;;;;5012583;28;20304;-75
2023/10/16 07:12:56;;;;;;;3.53;0.65;;;11.40;99.90;;;;;;5005874;28;20217;-74
2023/10/16 07:15:25;;;;;;;2.60;0.75;;;11.10;99.90;;;;;;5003394;28;20282;-75
2023/10/16 07:17:51;;;;;;;2.92;0.93;;;11.20;99.90;;;;;;5012272;28;20213;-75
2023/10/16 07:20:29;;;;;;;3.15;1.02;;;11.60;99.90;;;;;;5012725;28;20725;-74
2023/10/16 07:23:01;;;;;;;2.13;0.90;;;11.40;99.90;;;;;;5013086;28;20205;-72
2023/10/16 07:25:47;;;;;;;4.35;0.90;;;11.30;99.90;;;;;;5014156;28;20232;-74
2023/10/16 07:28:15;;;;;;;1.00;0.70;;;10.80;99.90;;;;;;5013878;28;20201;-75
2023/10/16 07:30:44;;;;;;;3.47;1.20;;;10.00;99.90;;;;;;5008303;28;20297;-73
2023/10/16 07:33:16;;;;;;;4.20;1.02;;;10.10;99.90;;;;;;5004310;28;20204;-74
2023/10/16 07:35:45;;;;;;;3.10;1.02;;;10.20;99.90;;;;;;5018637;28;20627;-74
2023/10/16 07:38:12;;;;;;;2.47;1.02;;;10.10;99.90;;;;;;5013025;28;20207;-75
2023/10/16 07:40:37;;;;;;;7.40;1.25;;;10.00;99.90;;;;;;5013969;28;20279;-74
2023/10/16 07:43:05;;;;;;;3.30;0.90;;;10.00;99.90;;;;;;5016873;28;20209;-74
2023/10/16 07:45:32;;;;;;;4.88;1.35;;;10.20;99.90;;;;;;5020438;28;20711;-74
2023/10/16 07:48:07;;;;;;;3.35;1.23;;;10.30;99.90;;;;;;5013842;28;20191;-74
2023/10/16 07:50:38;;;;;;;2.53;1.00;;;10.00;99.90;;;;;;5008727;28;20207;-73
2023/10/16 07:53:07;;;;;;;1.30;0.60;;;10.00;99.90;;;;;;5017773;28;20605;-73
2023/10/16 07:55:39;;;;;;;3.20;1.05;;;9.90;99.90;;;;;;5013745;28;20221;-75
2023/10/16 07:58:15;;;;;;;3.47;1.00;;;9.70;99.90;;;;;;5016139;28;20765;-74
2023/10/16 08:00:59;;;;;;;3.13;0.95;;;9.20;99.90;;;;;;5012405;28;20255;-74
2023/10/16 08:03:26;;;;;;;1.63;0.80;;;9.60;99.90;;;;;;5007170;28;20291;-74
2023/10/16 08:05:52;;;;;;;2.13;0.87;;;9.80;99.90;;;;;;5011492;28;20217;-74
2023/10/16 08:08:25;;;;;;;3.63;1.08;;;9.90;99.90;;;;;;5014925;28;20279;-74
2023/10/16 08:10:52;;;;;;;3.10;0.73;;;9.60;99.90;;;;;;5018117;28;20208;-75
2023/10/16 08:13:18;;;;;;;3.03;0.87;;;9.60;99.90;;;;;;5007055;28;20204;-74
2023/10/16 08:15:44;;;;;;;2.30;0.77;;;9.70;99.90;;;;;;5013605;28;20250;-74
2023/10/16 08:18:12;;;;;;;5.77;1.10;;;9.80;99.90;;;;;;5018507;28;20183;-74
2023/10/16 08:21:00;;;;;;;1.40;0.70;;;10.00;99.90;;;;;;5010451;28;20582;-74
2023/10/16 08:23:34;;;;;;;4.97;1.23;;;10.20;99.90;;;;;;5008924;28;20703;-74
2023/10/16 08:26:14;;;;;;;2.67;1.52;;;10.40;99.90;;;;;;5016441;28;20230;-74
2023/10/16 08:28:44;;;;;;;7.03;1.17;;;10.40;99.90;;;;;;5007706;28;20274;-75
2023/10/16 08:31:23;;;;;;;1.90;1.03;;;10.20;99.90;;;;;;5014291;28;20215;-75
2023/10/16 08:33:59;;;;;;;2.37;0.90;;;10.60;99.90;;;;;;5013963;28;20295;-74
2023/10/16 08:36:26;;;;;;;2.58;1.33;;;10.60;99.90;;;;;;5007546;28;20215;-74
2023/10/16 08:38:52;;;;;;;2.23;1.07;;;10.50;99.90;;;;;;5009612;28;20187;-75
2023/10/16 08:41:30;;;;;;;2.50;1.60;;;10.70;99.90;;;;;;5012811;28;20213;-76
2023/10/16 08:44:05;;;;;;;1.95;0.77;;;10.70;99.90;;;;;;4997306;28;20220;-75
2023/10/16 08:46:32;;;;;;;2.28;0.80;;;10.90;99.90;;;;;;5013101;28;20253;-75
2023/10/16 08:49:00;;;;;;;1.25;0.73;;;11.00;99.90;;;;;;5013301;28;20213;-74
2023/10/16 08:51:28;;;;;;;4.03;0.93;;;11.20;99.90;;;;;;5017888;28;20208;-75
2023/10/16 08:53:59;;;;;;;3.50;0.90;;;11.40;99.90;;;;;;5009579;28;20277;-74
2023/10/16 08:56:25;;;;;;;6.50;1.05;;;11.60;99.90;;;;;;5014877;28;20821;-74
2023/10/16 08:58:55;;;;;;;4.40;0.70;;;11.70;99.90;;;;;;5016863;28;20239;-74
2023/10/16 09:01:23;;;;;;;2.05;1.08;;;11.70;99.90;;;;;;5016784;28;20820;-75
2023/10/16 09:03:57;;;;;;;1.42;0.73;;;11.10;99.90;;;;;;5012470;28;20209;-76
2023/10/16 09:06:24;;;;;;;1.80;0.70;;;11.00;99.90;;;;;;5009277;28;20258;-74
2023/10/16 09:08:50;;;;;;;1.52;0.63;;;11.30;99.90;;;;;;5007559;28;20174;-76
2023/10/16 09:11:18;;;;;;;1.60;1.10;;;11.70;99.90;;;;;;5011919;28;20620;-74
2023/10/16 09:13:49;;;;;;;2.17;0.85;;;11.80;99.90;;;;;;5010777;28;20209;-76
2023/10/16 09:16:15;;;;;;;1.77;1.20;;;12.00;99.90;;;;;;5009885;28;20208;-75
2023/10/16 09:18:41;;;;;;;4.05;2.08;;;12.20;99.90;;;;;;5010781;28;20239;-74
2023/10/16 09:21:13;;;;;;;3.72;1.08;;;12.20;99.90;;;;;;5013095;28;20200;-75
2023/10/16 09:23:51;;;;;;;2.17;1.08;;;12.40;99.90;;;;;;5011700;28;20212;-75
2023/10/16 09:26:17;;;;;;;4.18;1.17;;;12.20;99.90;;;;;;5013529;28;20634;-75
2023/10/16 09:28:47;;;;;;;3.83;1.23;;;11.80;99.90;;;;;;5015524;28;20212;-75
2023/10/16 09:31:18;;;;;;;2.35;0.90;;;12.00;99.90;;;;;;5011474;28;20209;-76
2023/10/16 09:33:45;;;;;;;2.35;0.88;;;12.30;99.90;;;;;;5012398;28;20213;-75
2023/10/16 09:36:17;;;;;;;2.25;0.93;;;12.40;99.90;;;;;;5011438;28;20575;-75
2023/10/16 09:38:45;;;;;;;4.28;0.90;;;12.40;99.90;;;;;;5027775;28;20212;-75
2023/10/16 09:41:59;;;;;;;3.53;0.90;;;12.70;99.90;;;;;;5016169;28;20307;-75
2023/10/16 09:46:57;;;;;;;2.55;0.68;;;12.40;99.90;;;;;;4993303;28;20213;-73
2023/10/16 09:49:24;;;;;;;2.20;0.60;;;12.30;99.90;;;;;;5005947;28;20264;-75
2023/10/16 09:51:57;;;;;;;2.40;0.73;;;12.20;99.90;;;;;;5006158;28;20216;-74
2023/10/16 09:54:27;;;;;;;2.72;0.80;;;12.10;99.90;;;;;;5009346;28;20216;-75
2023/10/16 09:57:00;;;;;;;0.90;0.60;;;12.20;99.90;;;;;;5008203;28;20539;-75
2023/10/16 09:59:33;;;;;;;1.75;0.85;;;12.30;99.90;;;;;;5009529;28;20196;-75
2023/10/16 10:02:08;;;;;;;2.03;0.90;;;12.40;99.90;;;;;;5013556;28;20311;-73
2023/10/16 10:04:38;;;;;;;4.63;1.52;;;12.80;99.90;;;;;;5011085;28;20240;-74
2023/10/16 10:07:11;;;;;;;1.40;0.80;;;12.80;99.90;;;;;;5006305;28;20722;-76
2023/10/16 10:09:44;;;;;;;3.92;0.85;;;12.90;99.90;;;;;;5001413;28;20214;-75
2023/10/16 10:12:53;;;;;;;2.33;0.80;;;12.70;99.90;;;;;;5005547;28;20181;-75
2023/10/16 10:15:33;;;;;;;2.10;0.75;;;12.50;99.90;;;;;;4954267;28;20233;-75
2023/10/16 10:18:31;;;;;;;1.50;1.02;;;12.60;99.90;;;;;;4971032;28;20265;-76
2023/10/16 10:20:48;;;;;;;1.73;0.88;;;12.70;99.90;;;;;;4995729;28;20220;-75
2023/10/16 10:23:15;;;;;;;2.22;0.82;;;12.80;99.90;;;;;;5012149;28;20204;-76
2023/10/16 10:25:43;;;;;;;1.55;0.57;;;12.90;99.90;;;;;;5010821;28;20593;-75
2023/10/16 10:28:22;;;;;;;1.77;0.70;;;12.90;99.90;;;;;;5010448;28;20675;-75
2023/10/16 10:30:49;;;;;;;0.93;0.47;;;12.90;99.90;;;;;;5003240;28;20209;-75
2023/10/16 10:33:36;;;;;;;2.85;0.75;;;12.80;99.90;;;;;;5005775;28;20668;-75
2023/10/16 10:36:33;;;;;;;5.65;0.90;;;13.10;99.90;;;;;;4997629;28;20990;-72
2023/10/16 10:39:20;;;;;;;2.05;0.70;;;12.60;99.90;;;;;;5008868;28;20173;-75
2023/10/16 10:41:54;;;;;;;2.00;0.80;;;12.50;99.90;;;;;;5012551;28;20275;-75
2023/10/16 10:44:29;;;;;;;4.25;0.93;;;12.90;99.90;;;;;;5013213;28;20238;-77
2023/10/16 10:46:57;;;;;;;3.88;1.17;;;12.60;99.90;;;;;;5004718;28;20200;-72
2023/10/16 10:49:33;;;;;;;3.13;0.80;;;13.00;99.90;;;;;;5012779;28;20574;-75
2023/10/16 10:52:12;;;;;;;3.80;1.10;;;13.10;99.90;;;;;;5015590;28;20208;-75
2023/10/16 10:54:43;;;;;;;7.10;1.00;;;13.10;99.90;;;;;;5008720;28;20240;-76
2023/10/16 10:57:22;;;;;;;4.22;0.80;;;13.20;99.90;;;;;;5005414;28;20659;-75
2023/10/16 10:59:54;;;;;;;2.17;0.70;;;12.70;99.90;;;;;;5011839;28;20633;-75
2023/10/16 11:02:22;;;;;;;3.95;0.85;;;12.90;99.90;;;;;;5013923;28;20200;-74
2023/10/16 11:04:53;;;;;;;1.40;0.68;;;12.80;99.90;;;;;;5014954;28;20216;-75
2023/10/16 11:07:28;;;;;;;2.50;0.70;;;12.60;99.90;;;;;;5005647;28;20212;-76
2023/10/16 11:09:59;;;;;;;4.88;0.63;;;12.60;99.90;;;;;;5014050;28;20227;-73
2023/10/16 11:12:25;;;;;;;2.47;1.02;;;12.20;99.90;;;;;;5004374;28;20212;-75
2023/10/16 11:14:53;;;;;;;0.98;0.70;;;12.30;99.90;;;;;;5009377;28;20197;-75
2023/10/16 11:17:35;;;;;;;6.00;0.90;;;12.30;99.90;;;;;;5013412;28;20208;-75
2023/10/16 11:22:43;;;;;;;4.15;1.00;;;12.30;99.90;;;;;;5016785;28;20200;-75
2023/10/16 11:25:13;;;;;;;4.25;0.73;;;12.50;99.90;;;;;;5015896;28;20208;-75
2023/10/16 11:27:42;;;;;;;1.60;0.50;;;12.50;99.90;;;;;;5017522;28;20205;-75
2023/10/16 11:30:11;;;;;;;2.35;0.75;;;12.60;99.90;;;;;;5014850;28;20276;-73
2023/10/16 11:32:47;;;;;;;1.75;0.70;;;12.40;99.90;;;;;;5009996;28;20681;-75
2023/10/16 11:35:16;;;;;;;2.60;0.90;;;12.60;99.90;;;;;;5006329;28;20603;-75
2023/10/16 11:37:44;;;;;;;0.98;0.60;;;12.50;99.90;;;;;;5007064;28;20259;-76
2023/10/16 11:41:04;;;;;;;2.10;0.60;;;12.80;99.90;;;;;;5014190;28;20227;-75
2023/10/16 11:43:12;;;;;;;5.25;0.85;;;13.10;99.90;;;;;;5008778;28;20201;-74
2023/10/16 11:45:39;;;;;;;3.47;0.50;;;13.20;99.90;;;;;;5008074;28;20217;-74
2023/10/16 11:51:15;;;;;;;3.53;0.73;;;13.20;99.90;;;;;;5017680;28;20222;-74
2023/10/16 11:53:41;;;;;;;3.92;0.90;;;13.40;99.90;;;;;;5016518;28;20262;-74
2023/10/16 11:56:09;;;;;;;3.28;1.20;;;13.30;99.90;;;;;;5027676;22;20259;-72
2023/10/16 11:58:36;;;;;;;3.22;0.70;;;13.30;99.90;;;;;;5014165;28;20223;-75
2023/10/16 12:01:11;;;;;;;0.75;0.63;;;12.70;99.90;;;;;;5010104;28;20216;-76
2023/10/16 12:03:38;;;;;;;5.72;0.70;;;12.60;99.90;;;;;;4999739;28;20282;-75
2023/10/16 12:06:14;;;;;;;1.30;0.75;;;12.60;99.90;;;;;;5006001;28;20407;-75
2023/10/16 12:08:44;;;;;;;2.92;1.08;;;12.60;99.90;;;;;;4992928;28;20182;-74
2023/10/16 12:11:14;;;;;;;3.83;1.15;;;12.70;99.90;;;;;;4979320;28;20209;-74
2023/10/16 12:13:43;;;;;;;1.65;0.73;;;12.80;99.90;;;;;;4991077;28;20267;-74
2023/10/16 12:16:09;;;;;;;1.10;0.50;;;12.70;99.90;;;;;;4991675;28;20214;-74
2023/10/16 12:18:35;;;;;;;2.40;0.60;;;12.50;99.90;;;;;;4988714;28;20811;-75
2023/10/16 12:21:06;;;;;;;2.03;0.73;;;12.60;99.90;;;;;;4971867;28;20282;-75
2023/10/16 12:23:36;;;;;;;1.58;0.70;;;12.60;99.90;;;;;;4993307;28;20232;-75
2023/10/16 12:26:03;;;;;;;3.25;0.70;;;12.70;99.90;;;;;;4996077;28;20226;-74
2023/10/16 12:28:32;;;;;;;2.10;0.70;;;12.50;99.90;;;;;;4996069;28;20218;-75
2023/10/16 12:30:59;;;;;;;1.60;0.65;;;12.50;99.90;;;;;;4995733;28;20327;-74
2023/10/16 12:33:28;;;;;;;2.55;0.75;;;12.50;99.90;;;;;;4997244;28;20202;-74
2023/10/16 12:35:57;;;;;;;0.95;0.50;;;12.50;99.90;;;;;;4985992;28;20657;-74
2023/10/16 12:38:26;;;;;;;2.60;0.80;;;12.10;99.90;;;;;;4997474;28;20265;-74
2023/10/16 12:40:59;;;;;;;2.30;1.10;;;12.20;99.90;;;;;;4990675;28;20221;-75
2023/10/16 12:43:28;;;;;;;1.35;0.60;;;12.10;99.90;;;;;;4995861;28;20217;-74
2023/10/16 12:45:57;;;;;;;1.60;0.77;;;12.00;99.90;;;;;;4989413;28;20205;-74
2023/10/16 12:48:25;;;;;;;2.63;0.60;;;12.00;99.90;;;;;;4992338;28;20245;-74
2023/10/16 12:50:51;;;;;;;2.53;0.57;;;12.00;99.90;;;;;;4991212;28;20185;-74
2023/10/16 12:53:17;;;;;;;1.80;0.53;;;12.00;99.90;;;;;;4996994;28;20218;-74
2023/10/16 12:55:49;;;;;;;0.87;0.50;;;12.10;99.90;;;;;;4990785;28;20272;-72
2023/10/16 12:58:17;;;;;;;1.60;0.70;;;12.10;99.90;;;;;;4988683;28;20309;-75
2023/10/16 13:00:46;;;;;;;4.97;0.50;;;12.00;99.90;;;;;;4992038;28;20225;-72
2023/10/16 13:03:15;;;;;;;1.43;0.77;;;12.00;99.90;;;;;;4981008;28;20558;-74
2023/10/16 13:05:42;;;;;;;0.87;0.57;;;12.00;99.90;;;;;;4996857;28;20181;-75
2023/10/16 13:08:08;;;;;;;2.13;0.70;;;12.00;99.90;;;;;;4996151;28;20217;-73
2023/10/16 13:10:35;;;;;;;2.10;0.60;;;12.10;99.90;;;;;;4999356;28;20624;-74
2023/10/16 13:13:02;;;;;;;3.83;1.00;;;12.10;99.90;;;;;;4990326;28;20210;-75
2023/10/16 13:15:31;;;;;;;1.67;0.60;;;12.10;99.90;;;;;;4995302;28;20210;-72
2023/10/16 13:18:01;;;;;;;1.00;0.30;;;12.20;99.90;;;;;;4997840;28;20772;-72
2023/10/16 13:20:32;;;;;;;5.90;0.80;;;12.20;99.90;;;;;;4994853;28;20252;-74
2023/10/16 13:22:58;;;;;;;1.20;0.53;;;12.10;99.90;;;;;;4990684;28;20264;-74
2023/10/16 13:25:34;;;;;;;0.77;0.50;;;12.10;99.90;;;;;;4992134;28;20579;-74
2023/10/16 13:28:00;;;;;;;3.07;1.00;;;12.10;99.90;;;;;;4988934;28;20205;-74
2023/10/16 13:30:26;;;;;;;3.47;0.80;;;12.20;99.90;;;;;;4986941;28;20214;-74
2023/10/16 13:32:52;;;;;;;1.17;0.60;;;12.10;99.90;;;;;;4988274;28;20194;-74
2023/10/16 13:35:21;;;;;;;1.40;0.50;;;12.00;99.90;;;;;;4989615;28;20830;-74
2023/10/16 13:37:49;;;;;;;0.90;0.70;;;11.90;99.90;;;;;;4986716;28;20279;-75
2023/10/16 13:40:21;;;;;;;0.80;0.40;;;11.90;99.90;;;;;;4985980;28;20221;-74
2023/10/16 13:42:48;;;;;;;1.10;0.50;;;11.90;99.90;;;;;;4987017;28;20205;-74
2023/10/16 13:45:14;;;;;;;1.70;0.50;;;11.90;99.90;;;;;;4998040;28;20181;-73
2023/10/16 13:47:43;;;;;;;2.50;0.67;;;11.70;99.90;;;;;;4995069;28;20189;-73
2023/10/16 13:50:35;;;;;;;2.00;0.53;;;11.80;99.90;;;;;;4993109;28;20205;-74
2023/10/16 13:53:04;;;;;;;1.67;0.60;;;12.00;99.90;;;;;;4991395;28;20226;-74
2023/10/16 13:55:30;;;;;;;0.67;0.30;;;12.00;99.90;;;;;;4990821;28;20209;-75
2023/10/16 13:57:56;;;;;;;4.50;0.80;;;12.10;99.90;;;;;;4996041;28;20268;-71
2023/10/16 14:00:28;;;;;;;4.37;0.70;;;12.10;99.90;;;;;;4979401;28;20234;-72
2023/10/16 14:03:09;;;;;;;1.17;0.50;;;12.10;99.90;;;;;;4993276;28;20228;-75
2023/10/16 14:05:46;;;;;;;1.97;0.47;;;12.10;99.90;;;;;;4990676;28;20213;-74
2023/10/16 14:08:15;;;;;;;1.13;0.60;;;12.20;99.90;;;;;;4991388;28;20205;-75
2023/10/16 14:10:57;;;;;;;2.13;0.70;;;12.00;99.90;;;;;;4989272;28;20209;-75
2023/10/16 14:13:27;;;;;;;0.67;0.47;;;12.00;99.90;;;;;;4983254;28;20209;-73
2023/10/16 14:16:07;;;;;;;1.20;0.50;;;12.00;99.90;;;;;;4981697;28;20206;-75
2023/10/16 14:18:32;;;;;;;0.40;0.40;;;12.00;99.90;;;;;;4991745;28;20739;-74
2023/10/16 14:20:58;;;;;;;3.07;1.17;;;12.00;99.90;;;;;;4991555;28;20197;-73
2023/10/16 14:23:28;;;;;;;4.20;0.77;;;12.00;99.90;;;;;;4989654;28;20217;-73
2023/10/16 14:25:58;;;;;;;1.53;0.60;;;12.00;99.90;;;;;;4997712;28;20205;-75
2023/10/16 14:28:34;;;;;;;1.87;0.73;;;12.10;99.90;;;;;;4993687;28;20213;-72
2023/10/16 14:31:09;;;;;;;1.63;0.60;;;12.10;99.90;;;;;;4993215;28;20694;-75
2023/10/16 14:33:36;;;;;;;4.77;1.33;;;11.90;99.90;;;;;;4984910;28;20710;-75
2023/10/16 14:36:09;;;;;;;5.50;1.43;;;11.90;99.90;;;;;;4987084;28;20210;-75
2023/10/16 14:38:37;;;;;;;1.97;1.07;;;12.00;99.90;;;;;;4990645;28;20325;-75
2023/10/16 14:41:08;;;;;;;2.80;0.50;;;11.90;99.90;;;;;;4992804;28;20224;-75
2023/10/16 14:43:37;;;;;;;2.70;0.80;;;11.80;99.90;;;;;;4989899;28;20204;-75
2023/10/16 14:46:10;;;;;;;2.63;0.80;;;11.90;99.90;;;;;;4990550;28;20875;-76
2023/10/16 14:48:37;;;;;;;2.30;0.63;;;11.90;99.90;;;;;;4990853;28;20221;-75
2023/10/16 14:51:06;;;;;;;2.17;1.03;;;11.90;99.90;;;;;;4991102;28;20178;-73
2023/10/16 14:53:33;;;;;;;0.83;0.57;;;12.00;99.90;;;;;;4991298;28;20182;-74
2023/10/16 14:55:59;;;;;;;1.80;0.43;;;12.00;99.90;;;;;;4993790;28;20232;-74
2023/10/16 14:58:25;;;;;;;2.67;1.13;;;12.10;99.90;;;;;;4980064;28;20228;-75
2023/10/16 15:00:51;;;;;;;1.03;0.70;;;12.00;99.90;;;;;;4991462;28;20212;-75